Time;durP1;ratioP1;P1;durP2;ratioP2;P2;SDS_P1;SDS_P2;PMS_P1;PMS_P2;Temp;Humidity;BMP_temperature;BMP_pressure;BME280_temperature;BME280_humidity;BME280_pressure;Samples;Min_cycle;Max_cycle;Signal;HPM_P1;HPM_P2
2023/11/08 00:01:36;;;;;;;16.13;9.10;;;;;;;;;;5049271;28;20060;-55
2023/11/08 00:04:02;;;;;;;16.35;8.80;;;;;;;;;;5031667;28;20057;-54
2023/11/08 00:06:28;;;;;;;21.73;9.27;;;;;;;;;;5049624;28;20029;-54
2023/11/08 00:08:54;;;;;;;18.05;10.38;;;;;;;;;;5049407;28;20031;-53
2023/11/08 00:11:23;;;;;;;16.63;9.48;;;;;;;;;;5030533;28;20029;-53
2023/11/08 00:13:50;;;;;;;17.80;10.15;;;;;;;;;;5026477;28;20032;-50
2023/11/08 00:16:17;;;;;;;17.15;9.88;;;;;;;;;;5048530;28;20025;-56
2023/11/08 00:18:44;;;;;;;18.67;10.23;;;;;;;;;;5050067;28;20021;-54
2023/11/08 00:21:11;;;;;;;16.20;10.15;;;;;;;;;;5049378;28;20017;-54
2023/11/08 00:23:39;;;;;;;17.40;10.82;;;;;;;;;;5032197;28;20079;-53
2023/11/08 00:26:06;;;;;;;19.05;10.45;;;;;;;;;;5049825;28;20021;-55
2023/11/08 00:28:32;;;;;;;18.05;10.43;;;;;;;;;;5046441;28;20017;-53
2023/11/08 00:30:58;;;;;;;18.67;10.77;;;;;;;;;;5030959;28;20035;-51
2023/11/08 00:33:27;;;;;;;19.30;10.63;;;;;;;;;;5049368;28;20478;-51
2023/11/08 00:35:53;;;;;;;20.35;10.75;;;;;;;;;;5031561;28;20016;-54
2023/11/08 00:38:19;;;;;;;16.60;10.07;;;;;;;;;;5049420;28;20040;-54
2023/11/08 00:40:45;;;;;;;18.25;11.43;;;;;;;;;;5048860;28;20013;-53
2023/11/08 00:43:11;;;;;;;17.40;10.57;;;;;;;;;;5031567;28;20025;-55
2023/11/08 00:45:37;;;;;;;19.17;11.10;;;;;;;;;;5031792;28;20033;-49
2023/11/08 00:48:03;;;;;;;16.38;10.00;;;;;;;;;;5049545;28;20025;-53
2023/11/08 00:50:29;;;;;;;15.73;10.30;;;;;;;;;;5031155;28;20067;-54
2023/11/08 00:52:58;;;;;;;22.08;10.60;;;;;;;;;;5049425;28;20017;-52
2023/11/08 00:55:24;;;;;;;16.88;9.73;;;;;;;;;;5049019;28;20040;-53
2023/11/08 00:57:50;;;;;;;19.83;9.57;;;;;;;;;;5049316;28;20024;-54
2023/11/08 01:00:16;;;;;;;17.80;9.55;;;;;;;;;;5048434;28;20017;-56
2023/11/08 01:02:42;;;;;;;20.15;9.57;;;;;;;;;;5049262;28;20032;-52
2023/11/08 01:05:09;;;;;;;17.08;8.93;;;;;;;;;;5049203;28;20071;-53
2023/11/08 01:07:36;;;;;;;20.13;10.15;;;;;;;;;;5050652;28;20072;-54
2023/11/08 01:10:02;;;;;;;19.02;9.80;;;;;;;;;;5034977;28;20053;-58
2023/11/08 01:12:28;;;;;;;18.90;10.40;;;;;;;;;;5053615;28;20078;-55
2023/11/08 01:14:54;;;;;;;16.83;9.38;;;;;;;;;;5053268;28;20021;-51
2023/11/08 01:17:20;;;;;;;16.25;8.85;;;;;;;;;;5053346;28;20021;-54
2023/11/08 01:19:46;;;;;;;16.27;9.00;;;;;;;;;;5034521;28;20017;-52
2023/11/08 01:22:12;;;;;;;17.27;8.85;;;;;;;;;;5053041;28;20028;-54
2023/11/08 01:24:41;;;;;;;16.52;9.40;;;;;;;;;;5052791;28;20029;-52
2023/11/08 01:27:07;;;;;;;17.02;9.55;;;;;;;;;;5043841;28;20394;-54
2023/11/08 01:29:33;;;;;;;22.63;9.50;;;;;;;;;;5052399;28;20052;-57
2023/11/08 01:31:59;;;;;;;17.60;9.23;;;;;;;;;;5053074;28;20454;-53
2023/11/08 01:34:25;;;;;;;15.98;8.93;;;;;;;;;;5053082;28;20025;-51
2023/11/08 01:36:51;;;;;;;20.13;9.63;;;;;;;;;;5052604;28;20082;-56
2023/11/08 01:39:17;;;;;;;17.00;9.23;;;;;;;;;;5052523;28;20018;-56
2023/11/08 01:41:50;;;;;;;18.70;10.07;;;;;;;;;;5034400;28;20017;-51
2023/11/08 01:44:19;;;;;;;18.65;10.65;;;;;;;;;;5052580;28;20078;-52
2023/11/08 01:46:49;;;;;;;20.27;9.80;;;;;;;;;;5034907;28;20021;-56
2023/11/08 01:49:15;;;;;;;19.25;9.65;;;;;;;;;;5052188;28;20105;-55
2023/11/08 01:51:41;;;;;;;17.65;10.05;;;;;;;;;;5034114;28;20163;-57
2023/11/08 01:54:08;;;;;;;21.10;9.38;;;;;;;;;;5052198;28;20032;-53
2023/11/08 01:56:34;;;;;;;18.95;9.45;;;;;;;;;;5052423;28;20110;-57
2023/11/08 01:59:01;;;;;;;18.83;9.60;;;;;;;;;;5034557;28;20021;-50
2023/11/08 02:01:27;;;;;;;17.25;9.20;;;;;;;;;;5051729;28;20032;-52
2023/11/08 02:03:53;;;;;;;20.27;9.82;;;;;;;;;;5052586;28;20033;-51
2023/11/08 02:06:19;;;;;;;16.83;8.90;;;;;;;;;;5034585;28;20029;-51
2023/11/08 02:08:46;;;;;;;16.45;8.68;;;;;;;;;;5052707;28;20107;-52
2023/11/08 02:11:12;;;;;;;17.00;9.05;;;;;;;;;;5051543;28;20048;-54
2023/11/08 02:13:39;;;;;;;18.70;9.45;;;;;;;;;;5051315;28;20391;-54
2023/11/08 02:16:05;;;;;;;22.45;10.27;;;;;;;;;;5046701;28;20013;-53
2023/11/08 02:18:31;;;;;;;18.05;9.35;;;;;;;;;;5033918;28;20023;-52
2023/11/08 02:21:01;;;;;;;17.17;9.15;;;;;;;;;;5050754;28;20067;-54
2023/11/08 02:23:27;;;;;;;17.80;9.68;;;;;;;;;;5052058;28;20102;-55
2023/11/08 02:25:54;;;;;;;16.88;9.18;;;;;;;;;;5052054;28;20492;-50
2023/11/08 02:28:20;;;;;;;19.80;10.52;;;;;;;;;;5034179;28;20610;-53
2023/11/08 02:30:53;;;;;;;17.90;9.98;;;;;;;;;;5051388;28;20063;-55
2023/11/08 02:33:20;;;;;;;18.02;9.70;;;;;;;;;;5052243;28;20013;-51
2023/11/08 02:35:46;;;;;;;17.58;9.60;;;;;;;;;;5034232;28;20021;-57
2023/11/08 02:38:14;;;;;;;22.05;10.23;;;;;;;;;;5052306;28;20382;-53
2023/11/08 02:40:40;;;;;;;19.57;9.87;;;;;;;;;;5033670;28;20550;-53
2023/11/08 02:43:06;;;;;;;17.48;10.70;;;;;;;;;;5051985;28;20266;-55
2023/11/08 02:45:33;;;;;;;22.13;10.75;;;;;;;;;;5043722;28;20445;-52
2023/11/08 02:48:01;;;;;;;18.80;10.00;;;;;;;;;;5051645;28;20079;-56
2023/11/08 02:50:28;;;;;;;20.60;10.65;;;;;;;;;;5033398;28;20064;-53
2023/11/08 02:52:54;;;;;;;17.50;10.13;;;;;;;;;;5052030;28;20033;-56
2023/11/08 02:55:20;;;;;;;17.27;8.57;;;;;;;;;;5051842;28;20075;-50
2023/11/08 02:57:46;;;;;;;17.75;9.50;;;;;;;;;;5051896;28;20029;-54
2023/11/08 03:00:13;;;;;;;17.98;9.82;;;;;;;;;;5033121;28;20017;-53
2023/11/08 03:02:39;;;;;;;17.15;10.45;;;;;;;;;;5034036;28;20013;-53
2023/11/08 03:05:09;;;;;;;16.95;9.52;;;;;;;;;;5051699;28;20021;-56
2023/11/08 03:07:35;;;;;;;17.77;10.52;;;;;;;;;;5043931;28;20017;-54
2023/11/08 03:10:04;;;;;;;18.02;10.32;;;;;;;;;;5051112;28;20500;-52
2023/11/08 03:12:30;;;;;;;18.65;9.60;;;;;;;;;;5051643;28;20021;-51
2023/11/08 03:14:56;;;;;;;16.15;9.63;;;;;;;;;;5051622;28;20074;-55
2023/11/08 03:17:22;;;;;;;19.75;9.30;;;;;;;;;;5051420;28;20029;-53
2023/11/08 03:19:48;;;;;;;18.52;9.68;;;;;;;;;;5032984;28;20034;-53
2023/11/08 03:22:14;;;;;;;19.45;9.27;;;;;;;;;;5051296;28;20032;-54
2023/11/08 03:24:40;;;;;;;17.73;9.85;;;;;;;;;;5055430;28;20501;-52
2023/11/08 03:27:06;;;;;;;15.50;9.02;;;;;;;;;;5056248;28;20028;-55
2023/11/08 03:29:33;;;;;;;19.67;9.90;;;;;;;;;;5043235;28;20028;-54
2023/11/08 03:32:00;;;;;;;16.17;8.98;;;;;;;;;;5051363;28;20078;-53
2023/11/08 03:34:27;;;;;;;19.30;9.85;;;;;;;;;;5050857;28;20113;-57
2023/11/08 03:36:53;;;;;;;18.55;9.30;;;;;;;;;;5051330;28;20071;-51
2023/11/08 03:39:19;;;;;;;17.00;9.35;;;;;;;;;;5032814;28;20025;-54
2023/11/08 03:41:45;;;;;;;17.52;9.02;;;;;;;;;;5032719;28;20017;-54
2023/11/08 03:44:11;;;;;;;16.15;9.13;;;;;;;;;;5050825;28;20079;-52
2023/11/08 03:46:37;;;;;;;15.90;8.90;;;;;;;;;;5033105;28;20111;-52
2023/11/08 03:49:03;;;;;;;15.65;9.10;;;;;;;;;;5032885;28;20112;-56
2023/11/08 03:51:29;;;;;;;18.50;10.93;;;;;;;;;;5049962;28;20025;-54
2023/11/08 03:53:55;;;;;;;18.58;9.43;;;;;;;;;;5050552;28;20044;-54
2023/11/08 03:56:21;;;;;;;17.30;9.18;;;;;;;;;;5032600;28;20068;-57
2023/11/08 03:58:47;;;;;;;20.77;10.38;;;;;;;;;;5032828;28;20457;-51
2023/11/08 04:01:13;;;;;;;18.70;10.52;;;;;;;;;;5049785;28;20103;-53
2023/11/08 04:03:39;;;;;;;17.17;8.68;;;;;;;;;;5050482;28;20017;-54
2023/11/08 04:06:05;;;;;;;17.92;10.10;;;;;;;;;;5050534;28;20013;-53
2023/11/08 04:08:34;;;;;;;18.92;10.15;;;;;;;;;;5050494;28;20017;-55
2023/11/08 04:11:01;;;;;;;20.52;9.40;;;;;;;;;;5031744;28;20020;-53
2023/11/08 04:13:27;;;;;;;17.08;9.50;;;;;;;;;;5050226;28;20128;-52
2023/11/08 04:15:55;;;;;;;19.65;10.18;;;;;;;;;;5050476;28;20020;-56
2023/11/08 04:18:22;;;;;;;18.55;10.35;;;;;;;;;;5032542;28;20043;-54
2023/11/08 04:20:48;;;;;;;17.30;9.82;;;;;;;;;;5049329;28;20447;-54
2023/11/08 04:23:15;;;;;;;17.92;9.68;;;;;;;;;;5032058;28;20028;-51
2023/11/08 04:25:44;;;;;;;20.38;10.20;;;;;;;;;;5050196;28;20055;-52
2023/11/08 04:28:10;;;;;;;17.13;10.30;;;;;;;;;;5050153;28;20017;-52
2023/11/08 04:30:36;;;;;;;16.55;10.05;;;;;;;;;;5031590;28;20107;-50
2023/11/08 04:33:05;;;;;;;16.88;10.38;;;;;;;;;;5050267;28;20021;-55
2023/11/08 04:35:31;;;;;;;17.40;10.00;;;;;;;;;;5049966;28;20033;-53
2023/11/08 04:37:57;;;;;;;16.92;9.55;;;;;;;;;;5032333;28;20021;-52
2023/11/08 04:40:23;;;;;;;23.33;10.48;;;;;;;;;;5049249;28;20017;-51
2023/11/08 04:42:49;;;;;;;23.67;10.35;;;;;;;;;;5035600;28;20020;-54
2023/11/08 04:45:15;;;;;;;19.73;11.30;;;;;;;;;;5056547;28;20544;-54
2023/11/08 04:47:42;;;;;;;21.85;11.75;;;;;;;;;;5057078;28;20021;-52
2023/11/08 04:50:08;;;;;;;19.95;12.55;;;;;;;;;;5056256;28;20109;-53
2023/11/08 04:52:34;;;;;;;21.55;16.33;;;;;;;;;;5057508;28;20028;-51
2023/11/08 04:55:00;;;;;;;21.92;19.20;;;;;;;;;;5056993;28;20522;-54
2023/11/08 04:57:26;;;;;;;23.23;20.77;;;;;;;;;;5039625;28;20025;-50
2023/11/08 04:59:52;;;;;;;22.30;19.17;;;;;;;;;;5038625;28;20491;-52
2023/11/08 05:02:19;;;;;;;22.50;19.42;;;;;;;;;;5057471;28;20051;-50
2023/11/08 05:04:45;;;;;;;21.90;19.60;;;;;;;;;;5057177;28;20486;-52
2023/11/08 05:07:14;;;;;;;21.63;19.30;;;;;;;;;;5057165;28;20021;-49
2023/11/08 05:09:41;;;;;;;23.73;20.25;;;;;;;;;;5056493;28;20028;-53
2023/11/08 05:12:07;;;;;;;25.83;19.73;;;;;;;;;;5057220;28;20104;-52
2023/11/08 05:14:33;;;;;;;24.52;19.70;;;;;;;;;;5056565;28;20028;-55
2023/11/08 05:17:01;;;;;;;21.45;18.50;;;;;;;;;;5056921;28;20016;-52
2023/11/08 05:19:27;;;;;;;21.07;17.90;;;;;;;;;;5055719;28;20028;-49
2023/11/08 05:21:53;;;;;;;22.05;17.95;;;;;;;;;;5038432;28;20070;-54
2023/11/08 05:24:21;;;;;;;19.88;17.17;;;;;;;;;;5056006;28;20429;-51
2023/11/08 05:26:47;;;;;;;19.90;17.80;;;;;;;;;;5056145;28;20013;-53
2023/11/08 05:29:14;;;;;;;20.65;17.63;;;;;;;;;;5037668;28;20048;-55
2023/11/08 05:31:39;;;;;;;20.20;17.15;;;;;;;;;;5055655;28;20021;-53
2023/11/08 05:34:07;;;;;;;18.92;16.45;;;;;;;;;;5055945;28;20084;-53
2023/11/08 05:36:34;;;;;;;22.45;16.08;;;;;;;;;;5055945;28;20580;-52
2023/11/08 05:39:00;;;;;;;19.23;15.48;;;;;;;;;;5056221;28;20021;-53
2023/11/08 05:41:26;;;;;;;18.83;14.73;;;;;;;;;;5055517;28;20090;-49
2023/11/08 05:43:53;;;;;;;19.85;15.55;;;;;;;;;;5056390;28;20109;-57
2023/11/08 05:46:19;;;;;;;19.80;15.35;;;;;;;;;;5056752;28;20566;-54
2023/11/08 05:48:46;;;;;;;19.08;14.98;;;;;;;;;;5056592;28;20483;-56
2023/11/08 05:51:12;;;;;;;17.88;14.82;;;;;;;;;;5055855;28;20043;-56
2023/11/08 05:53:38;;;;;;;19.05;15.05;;;;;;;;;;5055270;28;20032;-53
2023/11/08 05:56:05;;;;;;;16.88;14.48;;;;;;;;;;5111577;23;20047;-61
2023/11/08 05:58:31;;;;;;;19.33;14.52;;;;;;;;;;5102310;28;20070;-63
2023/11/08 06:00:57;;;;;;;19.27;13.93;;;;;;;;;;5101327;28;20015;-64
2023/11/08 06:03:24;;;;;;;17.50;14.30;;;;;;;;;;5084485;28;20039;-63
2023/11/08 06:05:50;;;;;;;17.20;13.48;;;;;;;;;;5070798;28;20020;-58
2023/11/08 06:08:16;;;;;;;18.55;13.98;;;;;;;;;;5064546;28;20024;-63
2023/11/08 06:10:42;;;;;;;19.77;13.95;;;;;;;;;;5063740;28;20550;-64
2023/11/08 06:13:09;;;;;;;19.38;13.85;;;;;;;;;;5081536;28;20039;-64
2023/11/08 06:15:35;;;;;;;19.70;14.68;;;;;;;;;;5064008;28;20082;-64
2023/11/08 06:18:01;;;;;;;17.65;13.88;;;;;;;;;;5063721;28;20017;-61
2023/11/08 06:20:27;;;;;;;20.10;14.15;;;;;;;;;;5080586;28;20029;-62
2023/11/08 06:22:54;;;;;;;20.95;14.88;;;;;;;;;;5079805;28;20101;-62
2023/11/08 06:25:20;;;;;;;19.17;14.05;;;;;;;;;;5080704;28;20020;-63
2023/11/08 06:27:47;;;;;;;20.92;14.07;;;;;;;;;;5080452;28;20035;-62
2023/11/08 06:30:16;;;;;;;17.67;13.57;;;;;;;;;;5062118;28;20089;-61
2023/11/08 06:32:43;;;;;;;19.42;13.85;;;;;;;;;;5081270;28;20021;-63
2023/11/08 06:35:09;;;;;;;18.08;13.38;;;;;;;;;;5080033;28;20020;-66
2023/11/08 06:37:37;;;;;;;23.92;14.80;;;;;;;;;;5079924;28;20016;-61
2023/11/08 06:40:05;;;;;;;18.87;12.67;;;;;;;;;;5061019;28;20016;-63
2023/11/08 06:42:30;;;;;;;16.67;11.52;;;;;;;;;;5079538;28;20019;-63
2023/11/08 06:44:57;;;;;;;17.35;11.18;;;;;;;;;;5079527;28;20096;-62
2023/11/08 06:47:24;;;;;;;22.98;11.77;;;;;;;;;;5079012;28;20525;-65
2023/11/08 06:49:50;;;;;;;20.05;11.68;;;;;;;;;;5078093;28;20036;-63
2023/11/08 06:52:16;;;;;;;17.02;11.25;;;;;;;;;;5078733;28;20075;-60
2023/11/08 06:54:42;;;;;;;19.42;11.27;;;;;;;;;;5080012;28;20032;-61
2023/11/08 06:57:09;;;;;;;16.02;10.68;;;;;;;;;;5079852;28;20021;-64
2023/11/08 06:59:35;;;;;;;16.98;11.07;;;;;;;;;;5079433;28;20031;-63
2023/11/08 07:02:03;;;;;;;18.52;11.77;;;;;;;;;;5078996;28;20054;-64
2023/11/08 07:04:29;;;;;;;19.10;11.43;;;;;;;;;;5079694;28;20025;-63
2023/11/08 07:06:55;;;;;;;16.70;10.85;;;;;;;;;;5079906;28;20516;-63
2023/11/08 07:09:21;;;;;;;15.90;9.95;;;;;;;;;;5079659;28;20021;-61
2023/11/08 07:11:48;;;;;;;16.33;10.48;;;;;;;;;;5080158;28;20020;-60
2023/11/08 07:14:14;;;;;;;20.48;11.20;;;;;;;;;;5079387;28;20028;-63
2023/11/08 07:16:40;;;;;;;26.10;11.98;;;;;;;;;;5079995;28;20024;-66
2023/11/08 07:19:06;;;;;;;17.20;11.32;;;;;;;;;;5079933;28;20021;-59
2023/11/08 07:21:32;;;;;;;22.38;11.23;;;;;;;;;;5080235;28;20043;-62
2023/11/08 07:23:58;;;;;;;19.05;11.50;;;;;;;;;;5062471;28;20028;-65
2023/11/08 07:26:24;;;;;;;17.30;11.02;;;;;;;;;;5080307;28;20052;-61
2023/11/08 07:28:50;;;;;;;16.63;11.32;;;;;;;;;;5072662;28;20024;-63
2023/11/08 07:31:16;;;;;;;17.33;10.90;;;;;;;;;;5077606;28;20386;-64
2023/11/08 07:33:43;;;;;;;16.60;10.48;;;;;;;;;;5077943;28;20032;-63
2023/11/08 07:36:09;;;;;;;16.88;11.25;;;;;;;;;;5079291;28;20024;-64
2023/11/08 07:38:35;;;;;;;18.45;10.85;;;;;;;;;;5076961;28;20126;-64
2023/11/08 07:41:02;;;;;;;18.35;10.73;;;;;;;;;;5077873;28;20044;-64
2023/11/08 07:43:29;;;;;;;20.90;11.38;;;;;;;;;;5078555;28;20084;-64
2023/11/08 07:45:57;;;;;;;19.33;12.00;;;;;;;;;;5078572;28;20059;-61
2023/11/08 07:48:25;;;;;;;20.98;11.23;;;;;;;;;;5079578;28;20025;-64
2023/11/08 07:50:51;;;;;;;20.00;10.25;;;;;;;;;;5078026;28;20065;-64
2023/11/08 07:53:19;;;;;;;17.85;10.65;;;;;;;;;;5079029;28;20031;-62
2023/11/08 07:55:45;;;;;;;22.20;10.73;;;;;;;;;;5078967;28;20028;-63
2023/11/08 07:58:12;;;;;;;17.42;11.02;;;;;;;;;;5078627;28;20045;-63
2023/11/08 08:00:42;;;;;;;19.20;11.68;;;;;;;;;;5060623;28;20051;-61
2023/11/08 08:03:08;;;;;;;17.40;10.30;;;;;;;;;;5061985;28;20080;-63
2023/11/08 08:05:34;;;;;;;17.83;10.68;;;;;;;;;;5061582;28;20094;-64
2023/11/08 08:08:00;;;;;;;18.63;11.23;;;;;;;;;;5079319;28;20024;-64
2023/11/08 08:10:31;;;;;;;16.67;11.20;;;;;;;;;;5079665;28;20038;-66
2023/11/08 08:12:57;;;;;;;17.55;10.68;;;;;;;;;;5079961;28;20071;-63
2023/11/08 08:15:24;;;;;;;17.98;11.02;;;;;;;;;;5079047;28;20520;-63
2023/11/08 08:17:50;;;;;;;16.45;10.55;;;;;;;;;;5079149;28;20080;-63
2023/11/08 08:20:16;;;;;;;18.83;10.43;;;;;;;;;;5079394;28;20082;-63
2023/11/08 08:22:42;;;;;;;19.17;10.32;;;;;;;;;;5061503;28;20025;-64
2023/11/08 08:25:11;;;;;;;20.55;10.75;;;;;;;;;;5079870;28;20031;-63
2023/11/08 08:27:39;;;;;;;18.63;11.18;;;;;;;;;;5080170;28;20021;-63
2023/11/08 08:30:06;;;;;;;18.05;10.00;;;;;;;;;;5061151;28;20051;-64
2023/11/08 08:32:32;;;;;;;16.83;10.30;;;;;;;;;;5060762;28;20036;-64
2023/11/08 08:34:58;;;;;;;17.92;10.55;;;;;;;;;;5079142;28;20013;-63
2023/11/08 08:37:24;;;;;;;16.83;10.10;;;;;;;;;;5060999;28;20198;-62
2023/11/08 08:39:50;;;;;;;18.63;10.52;;;;;;;;;;5078080;28;20150;-60
2023/11/08 08:42:16;;;;;;;18.05;10.93;;;;;;;;;;5079393;28;20020;-61
2023/11/08 08:44:42;;;;;;;16.30;10.95;;;;;;;;;;5077182;28;20054;-62
2023/11/08 08:47:09;;;;;;;16.65;9.98;;;;;;;;;;5068456;28;20029;-46
2023/11/08 08:49:35;;;;;;;15.52;9.40;;;;;;;;;;5068107;28;20028;-50
2023/11/08 08:52:01;;;;;;;16.08;9.13;;;;;;;;;;5068306;28;20500;-47
2023/11/08 08:54:27;;;;;;;16.73;9.65;;;;;;;;;;5068201;28;20112;-50
2023/11/08 08:56:53;;;;;;;17.77;9.80;;;;;;;;;;5068653;28;20040;-50
2023/11/08 08:59:19;;;;;;;16.67;9.80;;;;;;;;;;5068205;28;20017;-48
2023/11/08 09:01:45;;;;;;;18.02;9.80;;;;;;;;;;5068032;28;20036;-47
2023/11/08 09:04:12;;;;;;;16.88;9.65;;;;;;;;;;5050161;28;20028;-48
2023/11/08 09:06:38;;;;;;;19.17;10.60;;;;;;;;;;5068257;28;20123;-43
2023/11/08 09:09:08;;;;;;;18.02;10.43;;;;;;;;;;5067854;28;20040;-46
2023/11/08 09:11:35;;;;;;;17.27;9.90;;;;;;;;;;5066014;28;20143;-46
2023/11/08 09:14:02;;;;;;;16.25;9.85;;;;;;;;;;5069696;28;20089;-53
2023/11/08 09:16:28;;;;;;;17.88;10.05;;;;;;;;;;5050111;28;20031;-51
2023/11/08 09:18:54;;;;;;;21.42;10.32;;;;;;;;;;5068362;28;20020;-50
2023/11/08 09:21:23;;;;;;;14.65;9.52;;;;;;;;;;5067168;28;20390;-44
2023/11/08 09:23:49;;;;;;;;;;;;;;;;;;5050934;28;20012;-50
2023/11/08 09:26:17;;;;;;;20.27;10.27;;;;;;;;;;5068214;28;19911;-47
2023/11/08 09:28:43;;;;;;;17.70;10.20;;;;;;;;;;5068426;28;20497;-49
2023/11/08 09:31:11;;;;;;;18.35;9.60;;;;;;;;;;5071848;28;20036;-48
2023/11/08 09:33:38;;;;;;;18.08;10.13;;;;;;;;;;5072652;28;20020;-57
2023/11/08 09:36:04;;;;;;;15.77;9.70;;;;;;;;;;5072209;28;20051;-56
2023/11/08 09:38:30;;;;;;;17.15;11.23;;;;;;;;;;5072808;28;20025;-53
2023/11/08 09:40:57;;;;;;;18.23;10.45;;;;;;;;;;5072037;28;20107;-52
2023/11/08 09:43:23;;;;;;;17.13;10.55;;;;;;;;;;5072482;28;20114;-55
2023/11/08 09:45:52;;;;;;;18.88;10.35;;;;;;;;;;5072332;28;20032;-55
2023/11/08 09:48:23;;;;;;;20.73;10.80;;;;;;;;;;5072211;28;20024;-53
2023/11/08 09:50:50;;;;;;;16.65;9.98;;;;;;;;;;5071360;28;20028;-52
2023/11/08 09:53:17;;;;;;;19.58;10.18;;;;;;;;;;5072002;28;20032;-53
2023/11/08 09:55:45;;;;;;;20.10;10.40;;;;;;;;;;5071728;28;20047;-52
2023/11/08 09:58:12;;;;;;;18.90;10.50;;;;;;;;;;5071755;28;20025;-53
2023/11/08 10:00:40;;;;;;;15.65;9.43;;;;;;;;;;5070942;28;20111;-55
2023/11/08 10:03:06;;;;;;;23.53;9.83;;;;;;;;;;5071560;28;20029;-55
2023/11/08 10:05:37;;;;;;;20.63;9.95;;;;;;;;;;5071654;28;20278;-57
2023/11/08 10:08:09;;;;;;;16.90;10.43;;;;;;;;;;5071538;28;20024;-56
2023/11/08 10:10:37;;;;;;;18.00;10.90;;;;;;;;;;5070752;28;20516;-54
2023/11/08 10:13:07;;;;;;;15.95;9.32;;;;;;;;;;5071441;28;20024;-56
2023/11/08 10:15:34;;;;;;;17.98;9.40;;;;;;;;;;5071265;28;20024;-53
2023/11/08 10:18:00;;;;;;;18.35;9.63;;;;;;;;;;5071343;28;20017;-55
2023/11/08 10:20:34;;;;;;;18.08;9.73;;;;;;;;;;5070529;28;20021;-57
2023/11/08 10:23:00;;;;;;;15.15;9.27;;;;;;;;;;5071425;28;20031;-55
2023/11/08 10:25:28;;;;;;;15.75;10.18;;;;;;;;;;5071349;28;20123;-55
2023/11/08 10:28:04;;;;;;;15.90;9.65;;;;;;;;;;5071541;28;20048;-57
2023/11/08 10:30:36;;;;;;;17.50;9.90;;;;;;;;;;5052431;28;20087;-55
2023/11/08 10:33:09;;;;;;;22.63;10.93;;;;;;;;;;5053610;28;20230;-56
2023/11/08 10:35:35;;;;;;;17.58;9.82;;;;;;;;;;5071262;28;20024;-54
2023/11/08 10:38:05;;;;;;;16.95;9.40;;;;;;;;;;5071831;28;20160;-51
2023/11/08 10:40:31;;;;;;;21.15;10.25;;;;;;;;;;5069487;28;20485;-51
2023/11/08 10:42:57;;;;;;;17.58;9.65;;;;;;;;;;5071159;28;20100;-54
2023/11/08 10:45:24;;;;;;;22.65;10.63;;;;;;;;;;5070939;28;20582;-56
2023/11/08 10:47:50;;;;;;;18.65;9.45;;;;;;;;;;5066058;28;20029;-56
2023/11/08 10:50:16;;;;;;;16.70;9.20;;;;;;;;;;5063630;28;20074;-56
2023/11/08 10:52:43;;;;;;;15.18;8.82;;;;;;;;;;5070302;28;20033;-54
2023/11/08 10:55:11;;;;;;;16.50;9.30;;;;;;;;;;5070137;28;20030;-55
2023/11/08 10:57:40;;;;;;;14.93;9.13;;;;;;;;;;5069040;28;20356;-51
2023/11/08 11:00:10;;;;;;;18.23;9.90;;;;;;;;;;5069371;28;20029;-54
2023/11/08 11:02:42;;;;;;;17.05;9.90;;;;;;;;;;5070513;28;20020;-54
2023/11/08 11:05:09;;;;;;;16.75;9.10;;;;;;;;;;5070577;28;20129;-55
2023/11/08 11:07:42;;;;;;;17.35;9.52;;;;;;;;;;5069793;28;20036;-52
2023/11/08 11:10:13;;;;;;;16.25;9.43;;;;;;;;;;5069557;28;20020;-60
2023/11/08 11:12:48;;;;;;;14.65;8.40;;;;;;;;;;5070308;28;20025;-56
2023/11/08 11:15:21;;;;;;;18.23;9.10;;;;;;;;;;5052332;28;20021;-56
2023/11/08 11:17:52;;;;;;;19.52;9.32;;;;;;;;;;5070237;28;20016;-56
2023/11/08 11:20:19;;;;;;;17.90;9.02;;;;;;;;;;5069193;28;20081;-58
2023/11/08 11:22:46;;;;;;;18.90;9.77;;;;;;;;;;5052462;28;20063;-58
2023/11/08 11:25:12;;;;;;;19.35;9.00;;;;;;;;;;5053135;28;20099;-56
2023/11/08 11:27:40;;;;;;;16.83;9.85;;;;;;;;;;5070128;28;20033;-52
2023/11/08 11:30:16;;;;;;;15.48;9.57;;;;;;;;;;5069500;28;20025;-56
2023/11/08 11:32:47;;;;;;;17.20;10.10;;;;;;;;;;5069808;28;20089;-56
2023/11/08 11:35:15;;;;;;;19.70;10.93;;;;;;;;;;5069942;28;20044;-55
2023/11/08 11:37:41;;;;;;;17.23;10.20;;;;;;;;;;5062341;28;20675;-55
2023/11/08 11:40:08;;;;;;;17.25;10.23;;;;;;;;;;5069272;28;20024;-54
2023/11/08 11:42:35;;;;;;;20.58;9.50;;;;;;;;;;5069744;28;20100;-55
2023/11/08 11:45:04;;;;;;;16.25;9.55;;;;;;;;;;5069725;28;20035;-51
2023/11/08 11:47:31;;;;;;;18.25;9.73;;;;;;;;;;5069039;28;20559;-56
2023/11/08 11:50:02;;;;;;;18.45;10.27;;;;;;;;;;5068870;28;20020;-55
2023/11/08 11:52:29;;;;;;;16.40;10.60;;;;;;;;;;5068835;28;20028;-50
2023/11/08 11:54:56;;;;;;;18.52;9.85;;;;;;;;;;5083226;23;20030;-50
2023/11/08 11:57:24;;;;;;;15.73;9.50;;;;;;;;;;5090505;28;20064;-49
2023/11/08 11:59:54;;;;;;;16.45;9.00;;;;;;;;;;5089879;28;20081;-50
2023/11/08 12:02:20;;;;;;;17.02;9.40;;;;;;;;;;5090485;28;20035;-52
2023/11/08 12:04:47;;;;;;;16.23;10.07;;;;;;;;;;5070996;28;20020;-54
2023/11/08 12:07:17;;;;;;;16.48;9.50;;;;;;;;;;5070251;28;20075;-51
2023/11/08 12:09:46;;;;;;;14.88;9.63;;;;;;;;;;5070293;28;20019;-54
2023/11/08 12:12:12;;;;;;;17.80;9.90;;;;;;;;;;5071368;28;20017;-55
2023/11/08 12:14:44;;;;;;;17.60;9.57;;;;;;;;;;5053033;28;20050;-53
2023/11/08 12:17:10;;;;;;;19.80;9.60;;;;;;;;;;5070406;28;20074;-50
2023/11/08 12:19:37;;;;;;;17.75;10.10;;;;;;;;;;5069733;28;20123;-51
2023/11/08 12:22:05;;;;;;;15.18;9.40;;;;;;;;;;5070762;28;20432;-54
2023/11/08 12:24:34;;;;;;;16.48;9.63;;;;;;;;;;5070485;28;20394;-48
2023/11/08 12:27:01;;;;;;;15.00;9.90;;;;;;;;;;5070204;28;20028;-51
2023/11/08 12:29:27;;;;;;;16.10;9.65;;;;;;;;;;5069260;28;20187;-51
2023/11/08 12:31:53;;;;;;;15.27;9.77;;;;;;;;;;5051340;28;20017;-55
2023/11/08 12:34:21;;;;;;;15.35;9.48;;;;;;;;;;5069533;28;20052;-53
2023/11/08 12:36:47;;;;;;;17.35;9.70;;;;;;;;;;5069101;28;20013;-53
2023/11/08 12:39:20;;;;;;;15.73;9.55;;;;;;;;;;5069264;28;20021;-52
2023/11/08 12:41:51;;;;;;;16.50;9.25;;;;;;;;;;5068495;28;20099;-51
2023/11/08 12:44:20;;;;;;;17.02;9.60;;;;;;;;;;5066726;28;20040;-55
2023/11/08 12:46:49;;;;;;;15.00;9.20;;;;;;;;;;5069440;28;20101;-53
2023/11/08 12:49:20;;;;;;;15.82;10.23;;;;;;;;;;5069080;28;20570;-50
2023/11/08 12:51:46;;;;;;;15.43;9.00;;;;;;;;;;5068672;28;20052;-51
2023/11/08 12:54:17;;;;;;;15.60;9.98;;;;;;;;;;5069267;28;20066;-54
2023/11/08 12:56:43;;;;;;;18.48;10.68;;;;;;;;;;5069038;28;20275;-54
2023/11/08 12:59:20;;;;;;;17.63;9.50;;;;;;;;;;5051216;28;20013;-55
2023/11/08 13:02:10;;;;;;;15.70;10.98;;;;;;;;;;5068825;28;20021;-57
2023/11/08 13:04:40;;;;;;;15.02;10.32;;;;;;;;;;5071575;28;20016;-53
2023/11/08 13:07:06;;;;;;;15.85;10.13;;;;;;;;;;5064302;28;20048;-53
2023/11/08 13:09:34;;;;;;;18.20;10.32;;;;;;;;;;5065797;28;20028;-51
2023/11/08 13:12:00;;;;;;;16.00;10.32;;;;;;;;;;5054918;28;20051;-49
2023/11/08 13:14:26;;;;;;;16.92;10.13;;;;;;;;;;5055001;28;20072;-53
2023/11/08 13:16:52;;;;;;;19.10;9.98;;;;;;;;;;5072934;28;20013;-55
2023/11/08 13:19:19;;;;;;;15.43;10.18;;;;;;;;;;5072865;28;20115;-51
2023/11/08 13:21:45;;;;;;;25.05;10.15;;;;;;;;;;5054100;28;20034;-52
2023/11/08 13:24:11;;;;;;;16.05;10.27;;;;;;;;;;5055611;28;20025;-54
2023/11/08 13:26:37;;;;;;;15.35;9.70;;;;;;;;;;5054609;28;20085;-52
2023/11/08 13:29:03;;;;;;;15.95;8.95;;;;;;;;;;5072796;28;20036;-52
2023/11/08 13:31:29;;;;;;;16.83;10.10;;;;;;;;;;5075505;28;20173;-51
2023/11/08 13:33:55;;;;;;;16.23;9.80;;;;;;;;;;5071157;28;20522;-52
2023/11/08 13:36:26;;;;;;;16.27;9.77;;;;;;;;;;5068374;28;20029;-54
2023/11/08 13:38:52;;;;;;;18.48;9.95;;;;;;;;;;5073042;28;20047;-49
2023/11/08 13:41:18;;;;;;;14.82;9.75;;;;;;;;;;5054388;28;20089;-52
2023/11/08 13:43:44;;;;;;;17.02;9.57;;;;;;;;;;5072554;28;20095;-54
2023/11/08 13:46:10;;;;;;;16.83;9.85;;;;;;;;;;5072393;28;20096;-56
2023/11/08 13:48:37;;;;;;;14.63;9.60;;;;;;;;;;5072642;28;20104;-52
2023/11/08 13:51:06;;;;;;;17.92;9.35;;;;;;;;;;5053619;28;20074;-55
2023/11/08 13:53:34;;;;;;;19.17;9.63;;;;;;;;;;5072622;28;20053;-52
2023/11/08 13:56:00;;;;;;;17.33;9.60;;;;;;;;;;5072310;28;20025;-51
2023/11/08 13:58:26;;;;;;;16.08;9.50;;;;;;;;;;5073374;28;20096;-56
2023/11/08 14:00:52;;;;;;;18.40;9.63;;;;;;;;;;5074594;28;20012;-55
2023/11/08 14:03:18;;;;;;;14.75;10.35;;;;;;;;;;5075032;28;20027;-52
2023/11/08 14:05:44;;;;;;;15.48;9.60;;;;;;;;;;5072236;28;20055;-51
2023/11/08 14:08:10;;;;;;;18.52;10.57;;;;;;;;;;5073068;28;20031;-50
2023/11/08 14:10:36;;;;;;;17.48;9.52;;;;;;;;;;5071791;28;20028;-52
2023/11/08 14:13:06;;;;;;;16.77;9.60;;;;;;;;;;5072385;28;20020;-51
2023/11/08 14:15:33;;;;;;;15.25;9.10;;;;;;;;;;5071052;28;20024;-49
2023/11/08 14:17:59;;;;;;;17.98;9.50;;;;;;;;;;5071453;28;20020;-52
2023/11/08 14:20:26;;;;;;;17.15;9.60;;;;;;;;;;5071551;28;20024;-55
2023/11/08 14:22:52;;;;;;;16.52;9.35;;;;;;;;;;5072287;28;20016;-52